Time;durP1;ratioP1;P1;durP2;ratioP2;P2;SDS_P1;SDS_P2;PMS_P1;PMS_P2;Temp;Humidity;BMP_temperature;BMP_pressure;BME280_temperature;BME280_humidity;BME280_pressure;Samples;Min_cycle;Max_cycle;Signal;HPM_P1;HPM_P2
2024/04/12 00:00:53;;;;;;;19.48;7.15;;;7.00;99.90;;;;;;5529286;25;20013;-84
2024/04/12 00:03:47;;;;;;;11.60;5.63;;;7.00;99.90;;;;;;5540770;25;20004;-82
2024/04/12 00:06:39;;;;;;;14.27;6.28;;;6.90;99.90;;;;;;5568621;25;20001;-85
2024/04/12 00:09:29;;;;;;;11.00;5.47;;;6.90;99.90;;;;;;5545288;25;20004;-84
2024/04/12 00:12:26;;;;;;;14.13;6.25;;;6.80;99.90;;;;;;5563744;25;20018;-78
2024/04/12 00:15:21;;;;;;;14.93;6.43;;;6.60;99.90;;;;;;5565980;25;20079;-83
2024/04/12 00:18:11;;;;;;;17.02;6.25;;;6.50;99.90;;;;;;5558853;25;20005;-84
2024/04/12 00:21:00;;;;;;;12.95;5.88;;;6.40;99.90;;;;;;5527937;25;20016;-85
2024/04/12 00:23:53;;;;;;;10.18;5.68;;;6.50;99.90;;;;;;5536104;25;20055;-83
2024/04/12 00:26:43;;;;;;;16.93;6.00;;;6.40;99.90;;;;;;5528381;25;20004;-87
2024/04/12 00:29:36;;;;;;;13.68;5.28;;;6.40;99.90;;;;;;5554390;25;20311;-85
2024/04/12 00:32:26;;;;;;;13.05;5.13;;;6.50;99.90;;;;;;5554179;25;20678;-84
2024/04/12 00:35:19;;;;;;;9.85;5.38;;;6.50;99.90;;;;;;5552815;25;20126;-85
2024/04/12 00:38:11;;;;;;;9.68;5.95;;;6.40;99.90;;;;;;5553773;25;20012;-81
2024/04/12 00:41:14;;;;;;;14.55;5.03;;;6.30;99.90;;;;;;5528978;25;20033;-84
2024/04/12 00:44:14;;;;;;;12.18;5.07;;;6.40;99.90;;;;;;5554660;25;20365;-84
2024/04/12 00:47:07;;;;;;;12.68;5.35;;;6.30;99.90;;;;;;5566545;25;20005;-86
2024/04/12 00:49:56;;;;;;;15.50;5.60;;;6.30;99.90;;;;;;5563890;25;20012;-84
2024/04/12 00:52:52;;;;;;;14.23;4.63;;;6.30;99.90;;;;;;5525929;25;20011;-85
2024/04/12 00:55:40;;;;;;;10.15;5.70;;;6.30;99.90;;;;;;5556875;25;20184;-84
2024/04/12 00:58:32;;;;;;;18.52;5.55;;;6.40;99.90;;;;;;5555999;25;20037;-84
2024/04/12 01:01:22;;;;;;;13.88;4.85;;;6.40;99.90;;;;;;5553936;25;20069;-81
2024/04/12 01:04:12;;;;;;;14.10;5.22;;;6.40;99.90;;;;;;5553653;25;20017;-85
2024/04/12 01:07:01;;;;;;;16.10;6.20;;;6.30;99.90;;;;;;5555532;25;20009;-86
2024/04/12 01:09:54;;;;;;;11.88;5.40;;;6.20;99.90;;;;;;5564816;25;20036;-78
2024/04/12 01:12:44;;;;;;;13.35;5.25;;;6.10;1.00;;;;;;5527573;25;20014;-82
2024/04/12 01:15:36;;;;;;;14.05;5.25;;;5.90;1.00;;;;;;5557756;25;20019;-86
2024/04/12 01:18:24;;;;;;;18.10;6.95;;;5.90;1.00;;;;;;5566042;25;20015;-83
2024/04/12 01:21:13;;;;;;;9.85;5.25;;;5.90;1.00;;;;;;5535405;25;20023;-85
2024/04/12 01:24:06;;;;;;;14.30;5.82;;;5.90;1.00;;;;;;5556372;25;20076;-86
2024/04/12 01:26:53;;;;;;;;;;;5.80;1.00;;;;;;5560488;25;20023;-86
2024/04/12 01:29:45;;;;;;;12.13;5.28;;;5.80;1.00;;;;;;5559841;25;19929;-86
2024/04/12 01:32:34;;;;;;;15.63;5.63;;;5.70;1.00;;;;;;5526339;25;20353;-85
2024/04/12 01:35:22;;;;;;;15.82;6.32;;;5.70;1.00;;;;;;5540673;25;20004;-82
2024/04/12 01:38:18;;;;;;;10.10;5.22;;;5.70;1.00;;;;;;5551242;25;20516;-85
2024/04/12 01:41:08;;;;;;;10.98;5.50;;;5.70;1.00;;;;;;5555579;25;20023;-86
2024/04/12 01:44:04;;;;;;;11.38;5.35;;;5.90;1.00;;;;;;5529072;25;20125;-85
2024/04/12 01:46:57;;;;;;;10.32;5.03;;;6.00;1.00;;;;;;5556010;25;20016;-83
2024/04/12 01:49:44;;;;;;;10.02;5.68;;;6.00;1.00;;;;;;5554179;25;20011;-86
2024/04/12 01:52:50;;;;;;;13.82;4.70;;;6.00;1.00;;;;;;5556690;25;20016;-82
2024/04/12 01:55:46;;;;;;;19.02;5.18;;;6.00;1.00;;;;;;5556061;25;20019;-84
2024/04/12 01:58:35;;;;;;;14.23;4.90;;;6.00;1.00;;;;;;5556541;25;20019;-86
2024/04/12 02:01:27;;;;;;;15.05;5.25;;;6.00;1.00;;;;;;5555414;25;20005;-82
2024/04/12 02:04:18;;;;;;;15.40;4.75;;;6.00;1.00;;;;;;5508185;25;20365;-87
2024/04/12 02:07:11;;;;;;;11.48;4.93;;;5.90;1.00;;;;;;5557520;25;20015;-87
2024/04/12 02:10:07;;;;;;;11.23;4.72;;;5.90;1.00;;;;;;5554826;25;20496;-84
2024/04/12 02:12:56;;;;;;;10.68;5.20;;;6.00;1.00;;;;;;5534058;25;20073;-83
2024/04/12 02:15:56;;;;;;;12.10;4.65;;;6.10;1.00;;;;;;5547937;25;20005;-85
2024/04/12 02:18:44;;;;;;;13.18;4.93;;;6.00;1.00;;;;;;5550889;25;20005;-82
2024/04/12 02:21:32;;;;;;;10.68;4.97;;;6.00;1.00;;;;;;5557146;25;20386;-87
2024/04/12 02:24:21;;;;;;;9.90;5.00;;;5.90;1.00;;;;;;5541296;25;20020;-77
2024/04/12 02:27:10;;;;;;;7.35;4.95;;;5.80;1.00;;;;;;5512566;25;20458;-84
2024/04/12 02:30:03;;;;;;;9.50;4.57;;;5.80;1.00;;;;;;5560666;25;20008;-87
2024/04/12 02:32:52;;;;;;;8.70;4.90;;;5.70;1.00;;;;;;5558273;25;20353;-87
2024/04/12 02:35:42;;;;;;;8.50;5.15;;;5.60;1.00;;;;;;5539001;25;19992;-79
2024/04/12 02:38:33;;;;;;;10.48;4.80;;;5.50;1.00;;;;;;5551946;25;20000;-84
2024/04/12 02:41:21;;;;;;;13.20;4.78;;;5.50;1.00;;;;;;5576595;25;20056;-81
2024/04/12 02:44:09;;;;;;;12.77;5.68;;;5.40;1.00;;;;;;5576371;25;19993;-80
2024/04/12 02:46:58;;;;;;;11.07;4.65;;;5.40;1.00;;;;;;5564038;25;20011;-84
2024/04/12 02:49:46;;;;;;;15.10;5.57;;;5.30;1.00;;;;;;5544003;25;20024;-85
2024/04/12 02:52:34;;;;;;;12.23;5.07;;;5.40;1.00;;;;;;5562386;25;20016;-84
2024/04/12 02:55:30;;;;;;;13.27;4.97;;;5.30;1.00;;;;;;5558628;25;20005;-86
2024/04/12 02:58:19;;;;;;;12.70;6.07;;;5.40;1.00;;;;;;5564880;25;20120;-85
2024/04/12 03:01:17;;;;;;;14.23;5.13;;;5.40;1.00;;;;;;5564962;25;20011;-84
2024/04/12 03:04:09;;;;;;;12.57;5.13;;;5.40;1.00;;;;;;5557974;25;20317;-85
2024/04/12 03:07:09;;;;;;;12.98;5.80;;;5.40;1.00;;;;;;5566094;25;20025;-84
2024/04/12 03:09:57;;;;;;;9.85;5.50;;;5.40;1.00;;;;;;5548782;25;20009;-84
2024/04/12 03:12:51;;;;;;;15.95;6.60;;;5.30;1.00;;;;;;5557635;25;20004;-84
2024/04/12 03:15:40;;;;;;;11.32;6.05;;;5.20;1.00;;;;;;5558579;25;20001;-87
2024/04/12 03:18:27;;;;;;;10.93;6.03;;;5.30;1.00;;;;;;5567877;25;20033;-84
2024/04/12 03:21:16;;;;;;;13.27;6.40;;;5.30;1.10;;;;;;5570818;25;20012;-85
2024/04/12 03:24:06;;;;;;;11.73;5.78;;;5.40;1.00;;;;;;5564541;25;20024;-84
2024/04/12 03:26:54;;;;;;;11.27;5.57;;;5.60;1.00;;;;;;5534023;25;20019;-86
2024/04/12 03:29:41;;;;;;;13.10;6.35;;;5.70;1.00;;;;;;5533641;25;20016;-84
2024/04/12 03:32:32;;;;;;;10.88;5.57;;;5.70;1.00;;;;;;5562636;25;20004;-85
2024/04/12 03:35:20;;;;;;;13.38;6.50;;;5.60;1.00;;;;;;5562846;25;20005;-86
2024/04/12 03:38:28;;;;;;;12.68;5.63;;;5.50;1.00;;;;;;5562472;25;20001;-85
2024/04/12 03:41:15;;;;;;;15.63;6.00;;;5.40;1.00;;;;;;5562233;25;20001;-84
2024/04/12 03:44:08;;;;;;;11.38;5.43;;;5.40;1.00;;;;;;5570121;25;19996;-82
2024/04/12 03:46:59;;;;;;;13.45;5.60;;;5.30;1.00;;;;;;5572374;25;20060;-83
2024/04/12 03:49:52;;;;;;;11.70;5.68;;;5.20;1.00;;;;;;5573979;25;19989;-84
2024/04/12 03:52:43;;;;;;;8.93;5.03;;;5.00;1.00;;;;;;5576004;25;20024;-84
2024/04/12 03:55:34;;;;;;;10.60;5.53;;;4.90;1.00;;;;;;5573736;25;20004;-84
2024/04/12 03:58:24;;;;;;;16.42;5.70;;;4.80;4.80;;;;;;5546421;25;20001;-84
2024/04/12 04:01:12;;;;;;;12.13;5.60;;;4.70;27.20;;;;;;5559445;25;20355;-86
2024/04/12 04:04:10;;;;;;;11.90;5.60;;;4.70;62.30;;;;;;5558634;25;20004;-85
2024/04/12 04:06:57;;;;;;;12.52;6.10;;;4.70;99.70;;;;;;5533540;25;20008;-77
2024/04/12 04:09:49;;;;;;;12.27;6.45;;;4.70;99.90;;;;;;5566578;25;20001;-85
2024/04/12 04:12:44;;;;;;;13.68;5.90;;;4.70;99.90;;;;;;5558430;25;20024;-84
2024/04/12 04:15:33;;;;;;;15.35;6.45;;;4.70;99.90;;;;;;5534762;25;20004;-76
2024/04/12 04:18:21;;;;;;;11.35;6.07;;;4.80;99.90;;;;;;5567188;25;20029;-83
2024/04/12 04:21:11;;;;;;;12.65;5.82;;;4.80;99.90;;;;;;5562903;25;20483;-84
2024/04/12 04:24:08;;;;;;;14.93;6.45;;;4.80;99.90;;;;;;5557914;25;20013;-83
2024/04/12 04:26:56;;;;;;;15.35;6.53;;;4.90;99.90;;;;;;5529751;25;20068;-84
2024/04/12 04:29:44;;;;;;;10.38;5.70;;;5.00;99.90;;;;;;5558871;25;20001;-86
2024/04/12 04:32:32;;;;;;;10.98;5.70;;;5.00;99.90;;;;;;5533167;25;20016;-82
2024/04/12 04:35:19;;;;;;;9.00;5.60;;;5.00;99.90;;;;;;5556021;25;20004;-83
2024/04/12 04:38:14;;;;;;;9.93;5.57;;;5.00;99.90;;;;;;5558047;25;20024;-84
2024/04/12 04:41:07;;;;;;;13.38;6.03;;;5.10;99.90;;;;;;5558363;25;20057;-83
2024/04/12 04:43:55;;;;;;;14.73;5.80;;;5.00;99.90;;;;;;5558279;25;20004;-84
2024/04/12 04:46:50;;;;;;;12.57;5.97;;;5.10;99.90;;;;;;5530685;25;20000;-84
2024/04/12 04:49:38;;;;;;;11.45;6.20;;;5.20;99.90;;;;;;5556990;25;20004;-81
2024/04/12 04:52:35;;;;;;;11.48;6.10;;;5.30;99.90;;;;;;5555283;25;20013;-81
2024/04/12 04:55:23;;;;;;;15.38;5.47;;;5.40;99.90;;;;;;5558835;25;20017;-85
2024/04/12 04:58:11;;;;;;;10.85;5.22;;;5.50;99.90;;;;;;5529206;25;20005;-85
2024/04/12 05:00:59;;;;;;;11.38;6.05;;;5.60;99.90;;;;;;5566390;25;20004;-82
2024/04/12 05:03:49;;;;;;;13.27;5.47;;;5.60;99.90;;;;;;5559904;25;20114;-83
2024/04/12 05:06:37;;;;;;;12.48;5.90;;;5.60;90.50;;;;;;5539710;25;20004;-83
2024/04/12 05:09:27;;;;;;;13.18;6.57;;;5.60;81.90;;;;;;5567923;25;20019;-81
2024/04/12 05:12:15;;;;;;;8.45;5.53;;;5.60;79.20;;;;;;5528779;25;20027;-82
2024/04/12 05:15:31;;;;;;;8.77;5.30;;;5.60;77.00;;;;;;5564335;25;20005;-82
2024/04/12 05:18:14;;;;;;;10.65;4.90;;;5.70;84.30;;;;;;5566834;25;20020;-83
2024/04/12 05:21:03;;;;;;;10.85;4.93;;;5.70;84.60;;;;;;5537571;25;20009;-82
2024/04/12 05:23:54;;;;;;;8.65;4.53;;;5.80;66.00;;;;;;5557393;25;20135;-86
2024/04/12 05:26:41;;;;;;;11.25;5.07;;;5.90;52.80;;;;;;5558654;25;20005;-85
2024/04/12 05:29:31;;;;;;;13.07;4.90;;;6.00;32.00;;;;;;5556061;25;20413;-84
2024/04/12 05:32:23;;;;;;;11.05;4.68;;;6.10;13.00;;;;;;5556656;25;20004;-82
2024/04/12 05:35:15;;;;;;;14.52;4.38;;;6.20;1.00;;;;;;5557612;25;20004;-83
2024/04/12 05:38:08;;;;;;;12.98;3.92;;;6.30;1.00;;;;;;5561226;25;20011;-84
2024/04/12 05:40:57;;;;;;;13.85;4.53;;;6.40;1.00;;;;;;5560355;25;20004;-86
2024/04/12 05:43:44;;;;;;;10.55;4.13;;;6.60;1.00;;;;;;5537552;25;20072;-85
2024/04/12 05:46:34;;;;;;;9.23;3.80;;;6.80;1.00;;;;;;5533080;25;20005;-83
2024/04/12 05:49:25;;;;;;;9.77;3.53;;;7.00;1.00;;;;;;5557655;25;20070;-84
2024/04/12 05:52:19;;;;;;;10.68;3.72;;;7.20;99.90;;;;;;5560838;25;20392;-79
2024/04/12 05:55:13;;;;;;;;;;;7.40;99.90;;;;;;5566439;25;20012;-77
2024/04/12 05:58:02;;;;;;;10.63;3.95;;;7.60;99.90;;;;;;5561958;25;20390;-82
2024/04/12 06:00:50;;;;;;;8.60;3.85;;;7.70;99.90;;;;;;5536983;25;20015;-79
2024/04/12 06:03:48;;;;;;;11.90;3.53;;;7.80;99.90;;;;;;5531345;25;20001;-83
2024/04/12 06:06:43;;;;;;;;;;;7.80;99.90;;;;;;5574108;25;20221;-76
2024/04/12 06:09:34;;;;;;;9.38;4.18;;;7.90;99.90;;;;;;5571840;25;20034;-83
2024/04/12 06:12:25;;;;;;;7.28;3.40;;;8.10;99.90;;;;;;5569510;25;20020;-84
2024/04/12 06:15:15;;;;;;;8.15;4.15;;;8.10;99.90;;;;;;5562486;25;20020;-84
2024/04/12 06:18:09;;;;;;;9.60;4.18;;;8.10;99.90;;;;;;5566120;25;20465;-83
2024/04/12 06:21:01;;;;;;;8.52;3.88;;;8.10;99.90;;;;;;5544398;25;20005;-84
2024/04/12 06:23:54;;;;;;;10.48;4.82;;;8.20;99.90;;;;;;5558728;25;20024;-83
2024/04/12 06:26:48;;;;;;;13.65;4.32;;;8.30;99.90;;;;;;5567596;25;20004;-84
2024/04/12 06:29:36;;;;;;;9.20;3.90;;;8.50;99.90;;;;;;5567350;25;20066;-84
2024/04/12 06:32:26;;;;;;;10.27;4.03;;;8.90;99.90;;;;;;5565099;25;20009;-84
2024/04/12 06:35:20;;;;;;;9.13;3.65;;;9.50;99.90;;;;;;5541581;25;20019;-83
2024/04/12 06:38:10;;;;;;;10.68;4.00;;;10.20;99.90;;;;;;5565896;25;20016;-84
2024/04/12 06:41:10;;;;;;;8.13;3.70;;;10.70;99.90;;;;;;5565416;25;20011;-84
2024/04/12 06:43:58;;;;;;;7.65;3.67;;;10.90;70.10;;;;;;5534393;25;20061;-86
2024/04/12 06:46:50;;;;;;;9.95;3.10;;;11.30;48.80;;;;;;5570847;25;19997;-82
2024/04/12 06:49:44;;;;;;;10.95;3.78;;;11.70;18.20;;;;;;5573541;25;20008;-84
2024/04/12 06:52:34;;;;;;;6.45;3.42;;;12.00;1.00;;;;;;5538280;25;20045;-82
2024/04/12 06:55:22;;;;;;;8.20;3.55;;;12.40;1.00;;;;;;5565918;25;20001;-82
2024/04/12 06:58:09;;;;;;;12.48;5.63;;;12.20;1.00;;;;;;5566499;25;20015;-83
2024/04/12 07:00:57;;;;;;;10.38;3.72;;;12.40;1.00;;;;;;5565955;25;20333;-81
2024/04/12 07:03:45;;;;;;;8.73;3.78;;;12.60;1.00;;;;;;5575404;25;20486;-84
2024/04/12 07:06:37;;;;;;;10.88;3.95;;;12.90;1.00;;;;;;5521257;25;20008;-84
2024/04/12 07:09:24;;;;;;;11.15;3.70;;;13.00;1.00;;;;;;5572388;25;20126;-79
2024/04/12 07:12:13;;;;;;;11.65;3.75;;;13.00;1.00;;;;;;5551003;25;20107;-81
2024/04/12 07:15:00;;;;;;;9.82;3.80;;;13.30;1.00;;;;;;5520530;25;20019;-81
2024/04/12 07:17:49;;;;;;;7.93;3.45;;;13.70;1.00;;;;;;5571783;25;20045;-82
2024/04/12 07:20:40;;;;;;;10.07;4.30;;;14.20;1.00;;;;;;5568411;25;20005;-83
2024/04/12 07:23:31;;;;;;;11.88;4.03;;;14.20;1.00;;;;;;5570414;25;20006;-83
2024/04/12 07:26:29;;;;;;;6.00;3.47;;;14.50;1.00;;;;;;5544262;25;20019;-85
2024/04/12 07:29:34;;;;;;;11.70;4.53;;;15.00;1.00;;;;;;5569636;25;20003;-86
2024/04/12 07:32:22;;;;;;;17.88;4.53;;;15.90;1.00;;;;;;5562818;25;20066;-82
2024/04/12 07:35:33;;;;;;;16.38;4.50;;;16.30;1.00;;;;;;5569523;25;20009;-84
2024/04/12 07:38:22;;;;;;;17.58;5.60;;;16.30;1.00;;;;;;5558111;25;20319;-85
2024/04/12 07:41:11;;;;;;;10.50;5.13;;;16.80;1.00;;;;;;5534072;25;20008;-85
2024/04/12 07:44:04;;;;;;;8.48;5.28;;;17.20;1.00;;;;;;5569690;25;20005;-81
2024/04/12 07:46:58;;;;;;;11.35;5.15;;;17.80;1.00;;;;;;5515439;25;20407;-85
2024/04/12 07:49:48;;;;;;;7.88;5.95;;;18.60;1.00;;;;;;5529740;25;20357;-83
2024/04/12 07:52:38;;;;;;;9.93;6.03;;;18.70;1.00;;;;;;5532591;25;20084;-81
2024/04/12 07:55:26;;;;;;;9.98;5.82;;;18.10;1.00;;;;;;5557265;25;20015;-83
2024/04/12 07:58:13;;;;;;;11.38;6.05;;;17.60;1.00;;;;;;5530632;25;20020;-83
2024/04/12 08:01:18;;;;;;;11.05;6.47;;;17.80;1.00;;;;;;5561230;25;20493;-85
2024/04/12 08:04:15;;;;;;;12.00;5.95;;;18.00;1.00;;;;;;5560202;25;20012;-85
2024/04/12 08:07:29;;;;;;;9.93;6.03;;;18.60;1.00;;;;;;5566283;25;20057;-80
2024/04/12 08:10:29;;;;;;;11.95;7.40;;;19.00;1.00;;;;;;5561254;25;20001;-84
2024/04/12 08:13:23;;;;;;;11.55;6.82;;;18.80;1.00;;;;;;5561106;25;20528;-82
2024/04/12 08:16:14;;;;;;;12.30;7.20;;;19.00;1.00;;;;;;5558708;25;20030;-81
2024/04/12 08:19:21;;;;;;;12.50;7.97;;;18.80;1.00;;;;;;5573140;25;20030;-79
2024/04/12 08:22:17;;;;;;;16.23;8.00;;;18.60;1.00;;;;;;5571965;25;20042;-79
2024/04/12 08:25:06;;;;;;;14.23;8.00;;;18.90;1.00;;;;;;5562410;25;20049;-82
2024/04/12 08:27:55;;;;;;;18.42;7.20;;;18.60;1.00;;;;;;5561652;25;20076;-85
2024/04/12 08:30:51;;;;;;;10.70;6.65;;;19.00;1.00;;;;;;5563487;25;20029;-77
2024/04/12 08:33:45;;;;;;;12.25;7.20;;;19.30;1.00;;;;;;5565872;25;20429;-81
2024/04/12 08:36:33;;;;;;;11.25;6.30;;;19.50;1.00;;;;;;5558783;25;20082;-86
2024/04/12 08:39:29;;;;;;;9.98;5.95;;;19.40;1.00;;;;;;5562118;25;20000;-85
2024/04/12 08:42:28;;;;;;;11.27;6.65;;;19.90;1.00;;;;;;5562813;25;20479;-84
2024/04/12 08:45:19;;;;;;;9.35;6.68;;;20.50;1.00;;;;;;5540327;25;20016;-84
2024/04/12 08:48:10;;;;;;;12.13;6.25;;;20.80;1.00;;;;;;5536403;25;20012;-84
2024/04/12 08:51:04;;;;;;;12.52;6.53;;;20.80;1.00;;;;;;5559560;25;20108;-84
2024/04/12 08:53:55;;;;;;;13.50;6.32;;;20.60;1.00;;;;;;5562195;25;20317;-81
2024/04/12 08:56:46;;;;;;;12.68;5.97;;;20.60;1.00;;;;;;5559008;25;20005;-82
2024/04/12 08:59:34;;;;;;;9.15;6.05;;;21.00;1.00;;;;;;5559907;25;20064;-80
2024/04/12 09:02:23;;;;;;;10.00;5.68;;;20.90;1.00;;;;;;5530093;25;20001;-80
2024/04/12 09:05:13;;;;;;;11.93;5.95;;;21.10;1.00;;;;;;5557878;25;20005;-81
2024/04/12 09:08:03;;;;;;;12.27;5.47;;;20.80;1.00;;;;;;5557457;25;20018;-82
2024/04/12 09:11:00;;;;;;;11.27;5.30;;;20.70;1.00;;;;;;5531704;25;20005;-81
2024/04/12 09:13:54;;;;;;;6.50;4.70;;;21.00;1.00;;;;;;5557639;25;20062;-82
2024/04/12 09:16:49;;;;;;;10.70;5.15;;;21.50;1.00;;;;;;5550295;25;19992;-80
2024/04/12 09:19:38;;;;;;;9.05;4.97;;;21.30;1.00;;;;;;5568806;25;19997;-80
2024/04/12 09:22:31;;;;;;;11.52;4.55;;;21.10;1.00;;;;;;5557864;25;20379;-80
2024/04/12 09:25:25;;;;;;;9.68;4.25;;;21.40;1.00;;;;;;5529150;25;20068;-82
2024/04/12 09:28:13;;;;;;;9.93;5.47;;;21.40;1.00;;;;;;5558193;25;20053;-80
2024/04/12 09:34:29;;;;;;;10.85;4.95;;;22.00;1.00;;;;;;5555557;25;20449;-82
2024/04/12 09:37:29;;;;;;;12.60;5.20;;;22.00;1.00;;;;;;5556103;25;20679;-81
2024/04/12 09:40:28;;;;;;;12.48;5.47;;;21.80;1.00;;;;;;5529757;25;20004;-84
2024/04/12 09:46:09;;;;;;;11.60;5.15;;;22.30;1.00;;;;;;5559973;25;20005;-81
2024/04/12 10:39:30;;;;;;;5.50;2.63;;;26.50;1.00;;;;;;5563160;25;20402;-83
2024/04/12 10:42:30;;;;;;;8.98;2.92;;;26.90;1.00;;;;;;5559311;25;20001;-84
2024/04/12 10:45:20;;;;;;;6.70;2.90;;;26.00;1.00;;;;;;5556336;25;20004;-81
2024/04/12 10:48:09;;;;;;;6.82;3.13;;;25.70;1.00;;;;;;5510196;25;20004;-85
2024/04/12 10:50:57;;;;;;;6.03;2.60;;;25.90;1.00;;;;;;5536422;25;20005;-85
2024/04/12 10:53:49;;;;;;;5.93;2.53;;;26.70;1.00;;;;;;5558767;25;20005;-83
2024/04/12 10:56:47;;;;;;;7.65;2.22;;;27.50;1.00;;;;;;5560545;25;20005;-83
2024/04/12 10:59:35;;;;;;;4.38;1.65;;;27.20;1.00;;;;;;5560061;25;20005;-85
2024/04/12 11:02:23;;;;;;;7.13;2.22;;;27.30;1.00;;;;;;5558030;25;20013;-84
2024/04/12 11:08:10;;;;;;;5.60;2.30;;;27.90;99.90;;;;;;5559754;25;20028;-84
2024/04/12 11:11:17;;;;;;;5.55;2.00;;;27.60;99.90;;;;;;5566648;25;20001;-85
2024/04/12 11:14:15;;;;;;;3.40;1.65;;;26.90;99.90;;;;;;5570071;25;20127;-82
2024/04/12 11:32:37;;;;;;;7.43;2.20;;;27.00;99.90;;;;;;5556632;25;20008;-85
2024/04/12 11:35:28;;;;;;;3.80;1.85;;;27.30;99.90;;;;;;5559875;25;20012;-84
2024/04/12 11:38:16;;;;;;;5.23;1.70;;;27.90;99.90;;;;;;5562905;25;20005;-83
2024/04/12 11:41:07;;;;;;;3.83;1.83;;;27.70;99.90;;;;;;5562577;25;20005;-84
2024/04/12 11:43:58;;;;;;;5.88;1.60;;;28.00;99.90;;;;;;5563237;25;20044;-85
2024/04/12 11:46:46;;;;;;;4.35;1.95;;;28.10;99.90;;;;;;5562969;25;20020;-83
2024/04/12 11:49:45;;;;;;;6.30;1.70;;;28.50;99.90;;;;;;5564239;25;20049;-83
2024/04/12 11:52:35;;;;;;;4.68;2.00;;;28.80;99.90;;;;;;5565501;25;20004;-85
2024/04/12 11:55:26;;;;;;;3.33;1.95;;;28.40;99.90;;;;;;5558253;25;20036;-85
2024/04/12 11:58:17;;;;;;;4.35;2.03;;;28.70;99.90;;;;;;5563732;25;20365;-85
2024/04/12 12:01:05;;;;;;;4.28;1.73;;;29.30;99.90;;;;;;5560601;25;20000;-82
2024/04/12 12:03:54;;;;;;;6.63;1.60;;;28.90;99.90;;;;;;5565941;25;20068;-86
2024/04/12 12:06:41;;;;;;;8.25;1.88;;;29.40;99.90;;;;;;5568276;25;20104;-86
2024/04/12 12:09:32;;;;;;;4.05;1.60;;;29.90;99.90;;;;;;5570066;25;20004;-84
2024/04/12 12:12:26;;;;;;;6.25;1.92;;;30.70;99.90;;;;;;5571406;25;20005;-85
2024/04/12 12:15:14;;;;;;;4.93;1.88;;;29.90;99.90;;;;;;5568752;25;20012;-83
2024/04/12 12:18:04;;;;;;;4.90;1.60;;;28.50;99.90;;;;;;5567241;25;20012;-83
2024/04/12 12:20:52;;;;;;;6.88;1.70;;;28.90;99.90;;;;;;5539784;25;20004;-84
2024/04/12 12:23:42;;;;;;;3.45;1.67;;;28.90;99.90;;;;;;5548234;25;20008;-84
2024/04/12 12:26:31;;;;;;;4.85;1.52;;;28.80;99.90;;;;;;5538658;25;20061;-84
2024/04/12 12:29:20;;;;;;;5.97;1.92;;;29.80;99.90;;;;;;5566783;25;20009;-84
2024/04/12 12:32:08;;;;;;;3.55;1.48;;;30.80;99.90;;;;;;5577174;25;20009;-84
2024/04/12 12:34:57;;;;;;;1.83;1.10;;;31.50;99.90;;;;;;5582087;25;19993;-83
2024/04/12 12:37:48;;;;;;;5.70;1.42;;;32.20;99.90;;;;;;5581728;25;20046;-85
2024/04/12 12:40:38;;;;;;;2.97;1.33;;;32.50;99.90;;;;;;5579843;25;20033;-83
2024/04/12 12:43:28;;;;;;;4.07;1.33;;;32.70;99.90;;;;;;5551596;25;20375;-84
2024/04/12 12:46:16;;;;;;;3.03;1.45;;;32.60;99.90;;;;;;5564850;25;20005;-83
2024/04/12 12:49:07;;;;;;;12.10;1.65;;;33.40;99.90;;;;;;5564806;25;20005;-84
2024/04/12 12:51:58;;;;;;;6.13;1.73;;;33.10;99.90;;;;;;5562465;25;20711;-85
2024/04/12 12:54:49;;;;;;;3.17;1.60;;;33.10;99.90;;;;;;5564046;25;20348;-86
2024/04/12 12:57:39;;;;;;;4.93;1.73;;;33.70;99.90;;;;;;5531713;25;20005;-81
2024/04/12 13:00:34;;;;;;;2.80;1.10;;;32.90;99.90;;;;;;5564638;25;20011;-83
2024/04/12 13:03:29;;;;;;;4.93;1.73;;;32.90;99.90;;;;;;5536661;25;20004;-87
2024/04/12 13:06:21;;;;;;;3.33;1.40;;;32.70;99.90;;;;;;5556192;25;19997;-83
2024/04/12 13:09:09;;;;;;;7.10;1.45;;;32.70;99.90;;;;;;5533457;25;20000;-84
2024/04/12 13:11:59;;;;;;;5.20;1.60;;;32.90;99.90;;;;;;5559906;25;20461;-86
2024/04/12 13:14:50;;;;;;;3.38;1.30;;;31.80;99.90;;;;;;5534264;25;20076;-84
2024/04/12 13:17:38;;;;;;;4.22;1.40;;;32.10;99.90;;;;;;5534552;25;20005;-84
2024/04/12 13:20:25;;;;;;;4.88;1.70;;;31.10;99.90;;;;;;5559786;25;20001;-84
2024/04/12 13:23:14;;;;;;;4.75;1.48;;;29.70;99.90;;;;;;5536781;25;20059;-85
2024/04/12 13:26:02;;;;;;;5.47;1.58;;;28.50;99.90;;;;;;5566431;25;20011;-86
2024/04/12 13:28:54;;;;;;;14.18;1.98;;;29.20;99.90;;;;;;5565039;25;20016;-83
2024/04/12 13:31:43;;;;;;;4.45;1.48;;;29.80;99.90;;;;;;5563589;25;20242;-86
2024/04/12 13:34:32;;;;;;;2.85;1.60;;;30.00;99.90;;;;;;5537303;25;20560;-85
2024/04/12 13:37:21;;;;;;;3.65;1.83;;;30.00;99.90;;;;;;5545294;25;20111;-84
2024/04/12 13:40:19;;;;;;;4.78;1.65;;;30.00;99.90;;;;;;5545068;25;20019;-84
2024/04/12 13:43:13;;;;;;;3.70;1.60;;;29.70;99.90;;;;;;5547174;25;20402;-80
2024/04/12 13:52:27;;;;;;;4.93;1.75;;;30.10;99.90;;;;;;5561679;25;20056;-85
2024/04/12 13:55:15;;;;;;;3.72;1.60;;;31.00;99.90;;;;;;5536723;25;20001;-83
2024/04/12 13:58:05;;;;;;;3.53;1.45;;;31.10;99.90;;;;;;5561973;25;20005;-81
2024/04/12 14:00:56;;;;;;;5.90;1.60;;;30.80;99.90;;;;;;5566840;25;20015;-80
2024/04/12 14:03:46;;;;;;;4.70;1.40;;;30.50;99.90;;;;;;5569121;25;20049;-84
2024/04/12 14:06:35;;;;;;;4.50;1.88;;;31.20;99.90;;;;;;5561653;25;20040;-83
2024/04/12 14:09:24;;;;;;;5.97;1.95;;;31.20;99.90;;;;;;5563065;25;20008;-84
2024/04/12 14:12:13;;;;;;;6.38;2.15;;;29.80;99.90;;;;;;5561102;25;20008;-84
2024/04/12 14:15:01;;;;;;;4.75;1.48;;;29.40;99.90;;;;;;5534508;25;20074;-82
2024/04/12 14:17:52;;;;;;;7.22;1.70;;;29.80;99.90;;;;;;5562359;25;20020;-84
2024/04/12 14:20:40;;;;;;;5.25;1.95;;;30.00;99.90;;;;;;5509432;25;20004;-85
2024/04/12 14:23:29;;;;;;;11.98;3.70;;;30.50;99.90;;;;;;5559131;25;20004;-85
2024/04/12 14:26:16;;;;;;;11.55;3.30;;;30.30;99.90;;;;;;5560851;25;20024;-85
2024/04/12 14:29:04;;;;;;;7.82;3.08;;;30.70;99.90;;;;;;5560765;25;20013;-85
2024/04/12 14:31:54;;;;;;;7.78;2.60;;;30.90;99.90;;;;;;5564926;25;20008;-85
2024/04/12 14:34:44;;;;;;;10.57;2.22;;;31.40;99.90;;;;;;5534668;25;20024;-86
2024/04/12 14:37:46;;;;;;;5.97;2.60;;;31.20;99.90;;;;;;5538307;25;20012;-83
2024/04/12 14:40:35;;;;;;;8.43;2.25;;;30.80;99.90;;;;;;5562611;25;20016;-85
2024/04/12 14:43:24;;;;;;;8.88;2.72;;;30.70;99.90;;;;;;5559703;25;20011;-86
2024/04/12 14:46:12;;;;;;;6.82;2.45;;;31.00;99.90;;;;;;5560687;25;20496;-85
2024/04/12 14:49:01;;;;;;;6.55;2.22;;;30.50;99.90;;;;;;5558505;25;20028;-85
2024/04/12 14:51:50;;;;;;;9.02;2.35;;;30.10;99.90;;;;;;5557323;25;20012;-85
2024/04/12 14:54:41;;;;;;;5.50;2.42;;;30.30;99.90;;;;;;5560980;25;20016;-81
2024/04/12 14:57:30;;;;;;;10.40;2.70;;;29.50;99.90;;;;;;5562165;25;20135;-83
2024/04/12 15:00:20;;;;;;;8.88;2.72;;;28.80;99.90;;;;;;5534573;25;20681;-82
2024/04/12 15:52:33;;;;;;;8.07;2.40;;;27.10;99.90;;;;;;5578120;25;19997;-85
2024/04/12 15:55:23;;;;;;;7.72;2.20;;;26.90;99.90;;;;;;5563811;25;20004;-85
2024/04/12 16:10:49;;;;;;;8.25;2.30;;;25.00;99.90;;;;;;5562996;25;20354;-84
2024/04/12 16:13:37;;;;;;;7.57;2.00;;;24.80;99.90;;;;;;5564485;25;20004;-82
2024/04/12 16:16:24;;;;;;;6.22;1.60;;;24.80;99.90;;;;;;5562708;25;20077;-83
2024/04/12 16:19:12;;;;;;;10.45;2.42;;;24.80;99.90;;;;;;5565766;25;20044;-84
2024/04/12 16:22:01;;;;;;;5.60;1.77;;;24.60;99.90;;;;;;5565749;25;20000;-80
2024/04/12 16:24:50;;;;;;;7.05;1.90;;;24.70;99.90;;;;;;5577296;25;20004;-85
2024/04/12 16:27:37;;;;;;;5.40;1.48;;;24.70;99.90;;;;;;5570812;25;20076;-85
2024/04/12 16:30:25;;;;;;;4.28;1.67;;;24.70;99.90;;;;;;5566705;25;20036;-85
2024/04/12 16:33:14;;;;;;;5.95;1.95;;;24.60;99.90;;;;;;5540615;25;20005;-84
2024/04/12 16:36:02;;;;;;;6.13;2.28;;;24.60;99.90;;;;;;5562174;25;20013;-83
2024/04/12 16:38:53;;;;;;;2.70;1.33;;;24.30;99.90;;;;;;5542194;25;20004;-85
2024/04/12 16:41:41;;;;;;;6.40;1.70;;;23.50;99.90;;;;;;5515699;25;20001;-84
2024/04/12 16:44:28;;;;;;;3.75;1.80;;;22.60;99.90;;;;;;5567687;25;20013;-82
2024/04/12 16:47:16;;;;;;;8.80;2.08;;;21.70;99.90;;;;;;5535970;20;20080;-84
2024/04/12 16:50:05;;;;;;;5.70;1.80;;;21.10;99.90;;;;;;5492506;26;20002;-84
2024/04/12 16:52:55;;;;;;;4.78;1.50;;;20.70;99.90;;;;;;5491217;26;20070;-83
2024/04/12 16:55:43;;;;;;;5.55;2.60;;;20.30;99.90;;;;;;5487897;26;20002;-81
2024/04/12 16:58:31;;;;;;;7.93;1.83;;;20.10;99.90;;;;;;5456484;26;20365;-82
2024/04/12 17:01:19;;;;;;;5.55;2.03;;;19.90;99.90;;;;;;5452539;26;20017;-77
2024/04/12 17:04:06;;;;;;;7.25;2.10;;;19.70;99.90;;;;;;5452486;26;20003;-82
2024/04/12 17:06:56;;;;;;;9.27;1.70;;;19.60;99.90;;;;;;5453070;26;20762;-84
2024/04/12 17:09:44;;;;;;;11.75;2.17;;;19.40;99.90;;;;;;5453311;26;20075;-82
2024/04/12 17:12:33;;;;;;;4.70;1.65;;;19.20;99.90;;;;;;5454701;26;20022;-82
2024/04/12 17:15:21;;;;;;;10.20;1.90;;;19.10;99.90;;;;;;5452762;26;20102;-83
2024/04/12 17:18:17;;;;;;;5.47;1.70;;;19.10;1.00;;;;;;5454535;26;20080;-84